Cuyahoga County Airport Cleveland US
ICAO: KCGF
IATA: CGF
Category: Medium
Scheduled Services: No

Elevation: 879 ft
TransAlt. 18000 ft.

Airport Communications:
CLEVELAND APP/DEP:125.35
CTAF:118.5
GND/CLNC DEL:121.85
COUNTY TWR:118.5
UNICOM:122.95

KCGF Zoom In..

Runways:

(A) RW 06 length 5102 ft width 100 ft
---- / hdg 57

(B) RW 24 length 5102 ft width 100 ft
ILS 111.10 / hdg 237

Location; KCGF
Day. 19 / Time. 20.45 Zulu
* Altimeter: 30.17
* Temperature: 06° c. 42.8°f.
* Wind from: 330° Speed 10 kn with Gusts up to 18 kn.
Dewpoint: 00° c.
Visibility: 20 Statute Miles.
Clouds: Scattered 3000 ft.
Clouds: Broken 7000 ft.

KCGF 192045Z 33010G18KT 20SM SCT030 BKN070 06/00 A3017


Wind From 330°
Speed 10 kn.

  YouTube Music Video
 
jpsmedia.com for Web Design  worldairports.se 2018   terms of use